sensor_id;sensor_type;location;lat;lon;timestamp;pressure;altitude;pressure_sealevel;temperature;humidity
76853;BME280;65825;52.232;10.566;2023-03-07T00:02:23;99016.69;;;1.70;78.54
76853;BME280;65825;52.232;10.566;2023-03-07T00:04:48;99008.78;;;1.74;78.52
76853;BME280;65825;52.232;10.566;2023-03-07T00:07:14;98996.69;;;1.73;78.86
76853;BME280;65825;52.232;10.566;2023-03-07T00:09:39;98989.88;;;1.68;78.41
76853;BME280;65825;52.232;10.566;2023-03-07T00:12:05;98985.47;;;1.70;78.88
76853;BME280;65825;52.232;10.566;2023-03-07T00:14:31;98978.72;;;1.63;79.28
76853;BME280;65825;52.232;10.566;2023-03-07T00:16:57;98976.91;;;1.65;79.04
76853;BME280;65825;52.232;10.566;2023-03-07T00:19:22;98973.66;;;1.57;79.54
76853;BME280;65825;52.232;10.566;2023-03-07T00:21:47;98967.44;;;1.62;79.57
76853;BME280;65825;52.232;10.566;2023-03-07T00:24:12;98962.97;;;1.69;78.91
76853;BME280;65825;52.232;10.566;2023-03-07T00:26:38;98950.91;;;1.65;79.46
76853;BME280;65825;52.232;10.566;2023-03-07T00:29:05;98955.13;;;1.70;78.91
76853;BME280;65825;52.232;10.566;2023-03-07T00:31:31;98949.72;;;1.79;78.63
76853;BME280;65825;52.232;10.566;2023-03-07T00:33:57;98947.91;;;1.81;78.73
76853;BME280;65825;52.232;10.566;2023-03-07T00:36:22;98935.97;;;1.74;79.08
76853;BME280;65825;52.232;10.566;2023-03-07T00:38:48;98934.09;;;1.79;78.77
76853;BME280;65825;52.232;10.566;2023-03-07T00:41:16;98929.88;;;1.74;78.59
76853;BME280;65825;52.232;10.566;2023-03-07T00:43:42;98919.81;;;1.95;78.09
76853;BME280;65825;52.232;10.566;2023-03-07T00:46:08;98922.22;;;2.03;77.38
76853;BME280;65825;52.232;10.566;2023-03-07T00:48:35;98920.09;;;2.17;76.91
76853;BME280;65825;52.232;10.566;2023-03-07T00:51:02;98895.59;;;2.25;75.70
76853;BME280;65825;52.232;10.566;2023-03-07T00:53:28;98903.94;;;2.38;75.62
76853;BME280;65825;52.232;10.566;2023-03-07T00:55:58;98903.69;;;2.45;75.44
76853;BME280;65825;52.232;10.566;2023-03-07T00:58:25;98874.19;;;2.46;75.34
76853;BME280;65825;52.232;10.566;2023-03-07T01:00:51;98888.03;;;2.47;75.63
76853;BME280;65825;52.232;10.566;2023-03-07T01:03:17;98872.41;;;2.47;75.58
76853;BME280;65825;52.232;10.566;2023-03-07T01:05:43;98862.88;;;2.47;75.66
76853;BME280;65825;52.232;10.566;2023-03-07T01:08:09;98863.63;;;2.51;75.38
76853;BME280;65825;52.232;10.566;2023-03-07T01:10:34;98844.50;;;2.52;76.08
76853;BME280;65825;52.232;10.566;2023-03-07T01:12:59;98846.28;;;2.50;75.41
76853;BME280;65825;52.232;10.566;2023-03-07T01:15:25;98838.38;;;2.53;75.51
76853;BME280;65825;52.232;10.566;2023-03-07T01:17:50;98832.38;;;2.51;74.93
76853;BME280;65825;52.232;10.566;2023-03-07T01:20:16;98823.75;;;2.49;75.28
76853;BME280;65825;52.232;10.566;2023-03-07T01:22:41;98833.25;;;2.51;75.30
76853;BME280;65825;52.232;10.566;2023-03-07T01:25:07;98827.34;;;2.45;76.30
76853;BME280;65825;52.232;10.566;2023-03-07T01:27:32;98817.00;;;2.42;76.03
76853;BME280;65825;52.232;10.566;2023-03-07T01:29:58;98811.63;;;2.48;75.93
76853;BME280;65825;52.232;10.566;2023-03-07T01:32:23;98804.59;;;2.51;75.77
76853;BME280;65825;52.232;10.566;2023-03-07T01:34:48;98809.91;;;2.47;76.46
76853;BME280;65825;52.232;10.566;2023-03-07T01:37:13;98795.19;;;2.46;76.64
76853;BME280;65825;52.232;10.566;2023-03-07T01:39:39;98796.00;;;2.48;76.64
76853;BME280;65825;52.232;10.566;2023-03-07T01:42:04;98794.25;;;2.48;77.25
76853;BME280;65825;52.232;10.566;2023-03-07T01:44:29;98783.31;;;2.37;76.92
76853;BME280;65825;52.232;10.566;2023-03-07T01:46:57;98782.53;;;2.34;78.02
76853;BME280;65825;52.232;10.566;2023-03-07T01:51:55;98757.25;;;2.37;77.71
76853;BME280;65825;52.232;10.566;2023-03-07T01:54:22;98759.84;;;2.39;78.50
76853;BME280;65825;52.232;10.566;2023-03-07T01:56:49;98746.88;;;2.36;78.69
76853;BME280;65825;52.232;10.566;2023-03-07T01:59:20;98736.50;;;2.34;78.66
76853;BME280;65825;52.232;10.566;2023-03-07T02:01:49;98733.16;;;2.31;79.09
76853;BME280;65825;52.232;10.566;2023-03-07T02:04:17;98735.00;;;2.27;79.72
76853;BME280;65825;52.232;10.566;2023-03-07T02:06:45;98734.94;;;2.30;79.30
76853;BME280;65825;52.232;10.566;2023-03-07T02:09:15;98733.38;;;2.23;79.57
76853;BME280;65825;52.232;10.566;2023-03-07T02:11:43;98738.69;;;2.20;80.00
76853;BME280;65825;52.232;10.566;2023-03-07T02:14:10;98731.69;;;2.22;81.45
76853;BME280;65825;52.232;10.566;2023-03-07T02:16:36;98710.00;;;2.22;82.16
76853;BME280;65825;52.232;10.566;2023-03-07T02:19:03;98718.84;;;2.16;81.72
76853;BME280;65825;52.232;10.566;2023-03-07T02:24:27;98715.75;;;2.04;82.37
76853;BME280;65825;52.232;10.566;2023-03-07T02:26:55;98710.59;;;2.02;83.16
76853;BME280;65825;52.232;10.566;2023-03-07T02:29:21;98701.25;;;1.95;82.88
76853;BME280;65825;52.232;10.566;2023-03-07T02:31:47;98695.88;;;2.01;83.04
76853;BME280;65825;52.232;10.566;2023-03-07T02:36:45;98699.28;;;2.03;82.63
76853;BME280;65825;52.232;10.566;2023-03-07T02:39:11;98698.47;;;2.01;82.54
76853;BME280;65825;52.232;10.566;2023-03-07T02:41:37;98693.47;;;1.95;83.54
76853;BME280;65825;52.232;10.566;2023-03-07T02:44:03;98689.09;;;1.96;82.94
76853;BME280;65825;52.232;10.566;2023-03-07T02:46:28;98683.09;;;1.94;83.00
76853;BME280;65825;52.232;10.566;2023-03-07T02:48:53;98676.88;;;1.99;82.78
76853;BME280;65825;52.232;10.566;2023-03-07T02:51:19;98681.38;;;1.93;83.09
76853;BME280;65825;52.232;10.566;2023-03-07T02:53:44;98677.03;;;1.93;83.74
76853;BME280;65825;52.232;10.566;2023-03-07T02:56:10;98684.78;;;1.95;83.88
76853;BME280;65825;52.232;10.566;2023-03-07T02:58:35;98673.56;;;1.94;83.66
76853;BME280;65825;52.232;10.566;2023-03-07T03:01:00;98658.78;;;1.95;84.00
76853;BME280;65825;52.232;10.566;2023-03-07T03:03:25;98663.13;;;1.94;83.82
76853;BME280;65825;52.232;10.566;2023-03-07T03:05:51;98671.75;;;1.96;83.77
76853;BME280;65825;52.232;10.566;2023-03-07T03:08:16;98670.13;;;1.92;84.37
76853;BME280;65825;52.232;10.566;2023-03-07T03:10:41;98662.34;;;1.91;85.00
76853;BME280;65825;52.232;10.566;2023-03-07T03:13:07;98644.50;;;1.79;85.41
76853;BME280;65825;52.232;10.566;2023-03-07T03:15:32;98658.59;;;1.72;85.86
76853;BME280;65825;52.232;10.566;2023-03-07T03:17:58;98654.09;;;1.78;85.51
76853;BME280;65825;52.232;10.566;2023-03-07T03:20:23;98651.59;;;1.74;86.31
76853;BME280;65825;52.232;10.566;2023-03-07T03:22:50;98640.28;;;1.75;86.43
76853;BME280;65825;52.232;10.566;2023-03-07T03:25:15;98640.25;;;1.76;86.88
76853;BME280;65825;52.232;10.566;2023-03-07T03:27:41;98626.53;;;1.71;87.00
76853;BME280;65825;52.232;10.566;2023-03-07T03:30:08;98652.44;;;1.76;86.67
76853;BME280;65825;52.232;10.566;2023-03-07T03:32:38;98645.81;;;1.64;87.08
76853;BME280;65825;52.232;10.566;2023-03-07T03:35:04;98644.84;;;1.68;86.75
76853;BME280;65825;52.232;10.566;2023-03-07T03:37:31;98641.53;;;1.63;86.55
76853;BME280;65825;52.232;10.566;2023-03-07T03:39:56;98639.53;;;1.71;86.47
76853;BME280;65825;52.232;10.566;2023-03-07T03:42:22;98644.78;;;1.70;86.14
76853;BME280;65825;52.232;10.566;2023-03-07T03:44:47;98637.78;;;1.72;86.21
76853;BME280;65825;52.232;10.566;2023-03-07T03:47:12;98647.38;;;1.70;85.94
76853;BME280;65825;52.232;10.566;2023-03-07T03:49:37;98656.56;;;1.81;85.57
76853;BME280;65825;52.232;10.566;2023-03-07T03:52:03;98651.56;;;1.75;85.78
76853;BME280;65825;52.232;10.566;2023-03-07T03:54:29;98631.47;;;1.80;85.22
76853;BME280;65825;52.232;10.566;2023-03-07T03:56:55;98659.28;;;1.78;85.20
76853;BME280;65825;52.232;10.566;2023-03-07T03:59:20;98643.75;;;1.75;86.35
76853;BME280;65825;52.232;10.566;2023-03-07T04:01:46;98640.09;;;1.81;85.70
76853;BME280;65825;52.232;10.566;2023-03-07T04:04:11;98635.53;;;1.89;85.72
76853;BME280;65825;52.232;10.566;2023-03-07T04:06:37;98627.75;;;1.89;85.46
76853;BME280;65825;52.232;10.566;2023-03-07T04:09:02;98626.75;;;1.93;85.13
76853;BME280;65825;52.232;10.566;2023-03-07T04:11:29;98637.16;;;1.93;84.77
76853;BME280;65825;52.232;10.566;2023-03-07T04:13:56;98620.00;;;1.86;85.28
76853;BME280;65825;52.232;10.566;2023-03-07T04:16:23;98620.81;;;1.89;85.31
76853;BME280;65825;52.232;10.566;2023-03-07T04:18:48;98615.59;;;1.89;85.60
76853;BME280;65825;52.232;10.566;2023-03-07T04:21:17;98611.97;;;1.93;85.59
76853;BME280;65825;52.232;10.566;2023-03-07T04:23:42;98619.66;;;1.98;85.14
76853;BME280;65825;52.232;10.566;2023-03-07T04:26:09;98610.97;;;1.99;85.38
76853;BME280;65825;52.232;10.566;2023-03-07T04:28:40;98629.16;;;1.99;85.17
76853;BME280;65825;52.232;10.566;2023-03-07T04:31:16;98611.91;;;1.96;85.00
76853;BME280;65825;52.232;10.566;2023-03-07T04:33:43;98612.63;;;2.01;84.81
76853;BME280;65825;52.232;10.566;2023-03-07T04:36:10;98618.63;;;2.03;84.96
76853;BME280;65825;52.232;10.566;2023-03-07T04:38:35;98610.72;;;2.06;85.08
76853;BME280;65825;52.232;10.566;2023-03-07T04:41:03;98601.22;;;2.05;85.32
76853;BME280;65825;52.232;10.566;2023-03-07T04:43:29;98605.44;;;2.09;85.20
76853;BME280;65825;52.232;10.566;2023-03-07T04:45:55;98605.38;;;2.11;84.96
76853;BME280;65825;52.232;10.566;2023-03-07T04:48:21;98605.25;;;2.15;85.12
76853;BME280;65825;52.232;10.566;2023-03-07T04:50:50;98604.41;;;2.13;85.02
76853;BME280;65825;52.232;10.566;2023-03-07T04:53:17;98601.56;;;2.21;85.24
76853;BME280;65825;52.232;10.566;2023-03-07T04:55:43;98599.13;;;2.16;85.03
76853;BME280;65825;52.232;10.566;2023-03-07T04:58:08;98587.91;;;2.14;85.39
76853;BME280;65825;52.232;10.566;2023-03-07T05:00:41;98590.25;;;2.22;84.75
76853;BME280;65825;52.232;10.566;2023-03-07T05:03:08;98582.53;;;2.20;85.40
76853;BME280;65825;52.232;10.566;2023-03-07T05:05:34;98573.78;;;2.23;85.17
76853;BME280;65825;52.232;10.566;2023-03-07T05:07:59;98576.97;;;2.31;84.75
76853;BME280;65825;52.232;10.566;2023-03-07T05:10:25;98578.91;;;2.24;85.21
76853;BME280;65825;52.232;10.566;2023-03-07T05:12:50;98571.88;;;2.28;85.52
76853;BME280;65825;52.232;10.566;2023-03-07T05:15:15;98574.31;;;2.32;85.30
76853;BME280;65825;52.232;10.566;2023-03-07T05:17:41;98570.69;;;2.38;84.55
76853;BME280;65825;52.232;10.566;2023-03-07T05:20:07;98569.84;;;2.36;84.75
76853;BME280;65825;52.232;10.566;2023-03-07T05:22:34;98563.81;;;2.35;85.11
76853;BME280;65825;52.232;10.566;2023-03-07T05:24:59;98567.16;;;2.39;84.82
76853;BME280;65825;52.232;10.566;2023-03-07T05:27:24;98572.81;;;2.51;84.43
76853;BME280;65825;52.232;10.566;2023-03-07T05:29:50;98561.59;;;2.49;83.63
76853;BME280;65825;52.232;10.566;2023-03-07T05:32:15;98568.50;;;2.50;84.15
76853;BME280;65825;52.232;10.566;2023-03-07T05:34:40;98554.47;;;2.54;84.15
76853;BME280;65825;52.232;10.566;2023-03-07T05:37:06;98559.72;;;2.53;84.16
76853;BME280;65825;52.232;10.566;2023-03-07T05:39:31;98564.53;;;2.65;83.58
76853;BME280;65825;52.232;10.566;2023-03-07T05:41:56;98562.03;;;2.62;84.19
76853;BME280;65825;52.232;10.566;2023-03-07T05:44:21;98559.44;;;2.62;83.87
76853;BME280;65825;52.232;10.566;2023-03-07T05:46:46;98549.97;;;2.59;83.52
76853;BME280;65825;52.232;10.566;2023-03-07T05:49:12;98556.81;;;2.62;84.05
76853;BME280;65825;52.232;10.566;2023-03-07T05:51:37;98542.84;;;2.64;84.30
76853;BME280;65825;52.232;10.566;2023-03-07T05:54:02;98555.91;;;2.63;84.01
76853;BME280;65825;52.232;10.566;2023-03-07T05:56:28;98553.22;;;2.66;84.38
76853;BME280;65825;52.232;10.566;2023-03-07T05:58:53;98557.44;;;2.70;83.56
76853;BME280;65825;52.232;10.566;2023-03-07T06:01:18;98556.47;;;2.72;83.81
76853;BME280;65825;52.232;10.566;2023-03-07T06:03:43;98549.50;;;2.73;84.58
76853;BME280;65825;52.232;10.566;2023-03-07T06:06:10;98558.22;;;2.72;84.21
76853;BME280;65825;52.232;10.566;2023-03-07T06:08:36;98539.03;;;2.74;84.25
76853;BME280;65825;52.232;10.566;2023-03-07T06:11:02;98543.00;;;2.84;83.98
76853;BME280;65825;52.232;10.566;2023-03-07T06:13:27;98546.56;;;2.82;84.18
76853;BME280;65825;52.232;10.566;2023-03-07T06:15:55;98549.97;;;2.84;84.17
76853;BME280;65825;52.232;10.566;2023-03-07T06:18:22;98563.91;;;2.83;84.38
76853;BME280;65825;52.232;10.566;2023-03-07T06:21:02;98578.22;;;2.96;85.01
76853;BME280;65825;52.232;10.566;2023-03-07T06:23:30;98590.50;;;2.92;84.76
76853;BME280;65825;52.232;10.566;2023-03-07T06:25:56;98606.97;;;2.93;84.78
76853;BME280;65825;52.232;10.566;2023-03-07T06:28:22;98610.00;;;2.81;84.01
76853;BME280;65825;52.232;10.566;2023-03-07T06:30:48;98623.59;;;2.64;84.75
76853;BME280;65825;52.232;10.566;2023-03-07T06:33:13;98617.88;;;2.53;85.00
76853;BME280;65825;52.232;10.566;2023-03-07T06:35:39;98625.78;;;2.50;85.25
76853;BME280;65825;52.232;10.566;2023-03-07T06:38:06;98626.84;;;2.45;85.77
76853;BME280;65825;52.232;10.566;2023-03-07T06:40:31;98627.25;;;2.33;85.54
76853;BME280;65825;52.232;10.566;2023-03-07T06:42:56;98634.44;;;2.25;85.51
76853;BME280;65825;52.232;10.566;2023-03-07T06:45:22;98631.03;;;2.23;85.10
76853;BME280;65825;52.232;10.566;2023-03-07T06:47:47;98634.06;;;2.09;85.84
76853;BME280;65825;52.232;10.566;2023-03-07T06:50:12;98634.19;;;2.05;86.45
76853;BME280;65825;52.232;10.566;2023-03-07T06:52:37;98636.06;;;2.00;86.31
76853;BME280;65825;52.232;10.566;2023-03-07T06:55:03;98636.22;;;1.95;87.20
76853;BME280;65825;52.232;10.566;2023-03-07T06:57:29;98638.00;;;1.93;86.87
76853;BME280;65825;52.232;10.566;2023-03-07T06:59:54;98637.69;;;1.75;87.81
76853;BME280;65825;52.232;10.566;2023-03-07T07:02:19;98643.44;;;1.86;87.72
76853;BME280;65825;52.232;10.566;2023-03-07T07:04:45;98633.03;;;1.86;87.70
76853;BME280;65825;52.232;10.566;2023-03-07T07:07:10;98636.34;;;1.91;87.59
76853;BME280;65825;52.232;10.566;2023-03-07T07:09:36;98629.16;;;1.99;87.00
76853;BME280;65825;52.232;10.566;2023-03-07T07:12:01;98640.06;;;2.11;87.13
76853;BME280;65825;52.232;10.566;2023-03-07T07:14:26;98628.06;;;2.06;87.73
76853;BME280;65825;52.232;10.566;2023-03-07T07:16:52;98636.59;;;2.11;86.61
76853;BME280;65825;52.232;10.566;2023-03-07T07:19:17;98629.69;;;2.10;87.46
76853;BME280;65825;52.232;10.566;2023-03-07T07:21:42;98628.66;;;2.15;87.02
76853;BME280;65825;52.232;10.566;2023-03-07T07:24:10;98624.28;;;2.16;87.25
76853;BME280;65825;52.232;10.566;2023-03-07T07:26:36;98629.09;;;2.02;87.63
76853;BME280;65825;52.232;10.566;2023-03-07T07:29:01;98632.84;;;2.19;86.83
76853;BME280;65825;52.232;10.566;2023-03-07T07:31:27;98630.09;;;2.25;87.18
76853;BME280;65825;52.232;10.566;2023-03-07T07:33:52;98630.66;;;2.35;86.77
76853;BME280;65825;52.232;10.566;2023-03-07T07:36:17;98635.22;;;2.27;87.55
76853;BME280;65825;52.232;10.566;2023-03-07T07:38:42;98633.91;;;2.41;87.25
76853;BME280;65825;52.232;10.566;2023-03-07T07:41:08;98635.25;;;2.53;86.93
76853;BME280;65825;52.232;10.566;2023-03-07T07:43:33;98629.94;;;2.56;86.95
76853;BME280;65825;52.232;10.566;2023-03-07T07:45:58;98648.84;;;2.62;87.40
76853;BME280;65825;52.232;10.566;2023-03-07T07:48:24;98633.25;;;2.87;86.59
76853;BME280;65825;52.232;10.566;2023-03-07T07:50:49;98643.97;;;2.78;86.86
76853;BME280;65825;52.232;10.566;2023-03-07T07:53:14;98632.50;;;2.83;86.55
76853;BME280;65825;52.232;10.566;2023-03-07T07:55:43;98644.91;;;2.75;87.11
76853;BME280;65825;52.232;10.566;2023-03-07T07:58:08;98640.28;;;2.85;87.08
76853;BME280;65825;52.232;10.566;2023-03-07T08:00:33;98638.94;;;2.98;86.66
76853;BME280;65825;52.232;10.566;2023-03-07T08:02:58;98630.66;;;2.87;86.56
76853;BME280;65825;52.232;10.566;2023-03-07T08:05:24;98635.50;;;2.97;86.86
76853;BME280;65825;52.232;10.566;2023-03-07T08:07:49;98646.06;;;2.93;86.79
76853;BME280;65825;52.232;10.566;2023-03-07T08:10:15;98641.47;;;3.01;86.60
76853;BME280;65825;52.232;10.566;2023-03-07T08:12:50;98640.72;;;3.22;86.01
76853;BME280;65825;52.232;10.566;2023-03-07T08:15:16;98638.81;;;3.27;86.33
76853;BME280;65825;52.232;10.566;2023-03-07T08:17:43;98637.31;;;3.20;86.32
76853;BME280;65825;52.232;10.566;2023-03-07T08:20:09;98636.09;;;3.30;85.58
76853;BME280;65825;52.232;10.566;2023-03-07T08:22:38;98639.56;;;3.30;85.69
76853;BME280;65825;52.232;10.566;2023-03-07T08:25:05;98641.97;;;3.35;84.91
76853;BME280;65825;52.232;10.566;2023-03-07T08:27:30;98635.50;;;3.46;85.06
76853;BME280;65825;52.232;10.566;2023-03-07T08:29:57;98637.50;;;3.38;84.55
76853;BME280;65825;52.232;10.566;2023-03-07T08:32:22;98633.56;;;3.28;84.27
76853;BME280;65825;52.232;10.566;2023-03-07T08:34:47;98629.28;;;3.26;84.83
76853;BME280;65825;52.232;10.566;2023-03-07T08:37:13;98641.81;;;3.15;83.71
76853;BME280;65825;52.232;10.566;2023-03-07T08:39:38;98645.78;;;3.02;84.52
76853;BME280;65825;52.232;10.566;2023-03-07T08:42:03;98644.34;;;2.93;85.81
76853;BME280;65825;52.232;10.566;2023-03-07T08:44:29;98642.97;;;2.82;85.24
76853;BME280;65825;52.232;10.566;2023-03-07T08:46:54;98650.50;;;2.65;86.26
76853;BME280;65825;52.232;10.566;2023-03-07T08:49:19;98638.75;;;2.78;85.94
76853;BME280;65825;52.232;10.566;2023-03-07T08:51:47;98644.84;;;2.78;85.67
76853;BME280;65825;52.232;10.566;2023-03-07T08:54:13;98651.28;;;2.67;85.71
76853;BME280;65825;52.232;10.566;2023-03-07T08:56:38;98652.97;;;2.68;85.98
76853;BME280;65825;52.232;10.566;2023-03-07T08:59:03;98654.50;;;2.75;86.00
76853;BME280;65825;52.232;10.566;2023-03-07T09:01:29;98668.56;;;2.69;85.52
76853;BME280;65825;52.232;10.566;2023-03-07T09:03:54;98660.88;;;2.66;84.57
76853;BME280;65825;52.232;10.566;2023-03-07T09:06:20;98658.44;;;2.60;84.45
76853;BME280;65825;52.232;10.566;2023-03-07T09:08:45;98663.56;;;2.63;85.22
76853;BME280;65825;52.232;10.566;2023-03-07T09:11:11;98662.66;;;2.64;84.92
76853;BME280;65825;52.232;10.566;2023-03-07T09:13:36;98664.84;;;2.50;84.56
76853;BME280;65825;52.232;10.566;2023-03-07T09:16:05;98675.03;;;2.58;85.37
76853;BME280;65825;52.232;10.566;2023-03-07T09:18:32;98663.97;;;2.51;85.22
76853;BME280;65825;52.232;10.566;2023-03-07T09:21:02;98669.69;;;2.62;85.19
76853;BME280;65825;52.232;10.566;2023-03-07T09:23:27;98652.66;;;2.78;84.03
76853;BME280;65825;52.232;10.566;2023-03-07T09:25:53;98654.09;;;2.87;84.38
76853;BME280;65825;52.232;10.566;2023-03-07T09:28:18;98654.84;;;2.90;83.60
76853;BME280;65825;52.232;10.566;2023-03-07T09:30:43;98647.03;;;2.90;83.09
76853;BME280;65825;52.232;10.566;2023-03-07T09:33:08;98648.25;;;3.05;83.99
76853;BME280;65825;52.232;10.566;2023-03-07T09:35:34;98654.50;;;3.25;83.44
76853;BME280;65825;52.232;10.566;2023-03-07T09:37:59;98640.06;;;3.40;83.58
76853;BME280;65825;52.232;10.566;2023-03-07T09:40:26;98643.31;;;3.69;82.26
76853;BME280;65825;52.232;10.566;2023-03-07T09:43:05;98629.94;;;3.55;81.50
76853;BME280;65825;52.232;10.566;2023-03-07T09:51:42;98620.84;;;5.16;75.86
76853;BME280;65825;52.232;10.566;2023-03-07T09:54:14;98618.44;;;5.51;74.84
76853;BME280;65825;52.232;10.566;2023-03-07T09:56:53;98620.19;;;5.89;72.04
76853;BME280;65825;52.232;10.566;2023-03-07T09:59:40;98622.81;;;6.08;72.83
76853;BME280;65825;52.232;10.566;2023-03-07T10:02:32;98629.41;;;5.98;72.59
76853;BME280;65825;52.232;10.566;2023-03-07T10:05:10;98626.06;;;6.31;72.59
76853;BME280;65825;52.232;10.566;2023-03-07T10:07:38;98622.75;;;6.09;72.34
76853;BME280;65825;52.232;10.566;2023-03-07T10:10:10;98616.34;;;5.78;73.62
76853;BME280;65825;52.232;10.566;2023-03-07T10:12:55;98622.13;;;5.66;74.84
76853;BME280;65825;52.232;10.566;2023-03-07T10:15:42;98623.84;;;5.27;75.32
76853;BME280;65825;52.232;10.566;2023-03-07T10:18:44;98620.34;;;4.88;76.51
76853;BME280;65825;52.232;10.566;2023-03-07T10:26:11;98631.97;;;4.16;78.79
76853;BME280;65825;52.232;10.566;2023-03-07T10:28:40;98627.44;;;3.98;79.75
76853;BME280;65825;52.232;10.566;2023-03-07T10:31:15;98630.69;;;3.59;81.37
76853;BME280;65825;52.232;10.566;2023-03-07T10:33:44;98638.59;;;3.56;82.03
76853;BME280;65825;52.232;10.566;2023-03-07T10:36:37;98632.78;;;3.49;82.07
76853;BME280;65825;52.232;10.566;2023-03-07T10:41:51;98638.97;;;3.47;81.68
76853;BME280;65825;52.232;10.566;2023-03-07T10:44:18;98643.81;;;3.33;82.43
76853;BME280;65825;52.232;10.566;2023-03-07T10:46:45;98644.81;;;3.29;82.39
76853;BME280;65825;52.232;10.566;2023-03-07T10:49:16;98652.84;;;3.23;82.08
76853;BME280;65825;52.232;10.566;2023-03-07T10:51:58;98645.25;;;3.17;82.48
76853;BME280;65825;52.232;10.566;2023-03-07T10:54:29;98648.56;;;3.22;82.43
76853;BME280;65825;52.232;10.566;2023-03-07T10:57:15;98653.34;;;3.09;82.47
76853;BME280;65825;52.232;10.566;2023-03-07T10:59:45;98655.28;;;3.03;83.40
76853;BME280;65825;52.232;10.566;2023-03-07T11:02:35;98644.84;;;2.78;83.63
76853;BME280;65825;52.232;10.566;2023-03-07T11:05:08;98637.22;;;2.98;83.58
76853;BME280;65825;52.232;10.566;2023-03-07T11:07:42;98644.63;;;2.84;83.58
76853;BME280;65825;52.232;10.566;2023-03-07T11:10:30;98645.91;;;2.71;84.70
76853;BME280;65825;52.232;10.566;2023-03-07T11:12:57;98643.13;;;2.77;82.78
76853;BME280;65825;52.232;10.566;2023-03-07T11:15:22;98644.28;;;2.69;83.48
76853;BME280;65825;52.232;10.566;2023-03-07T11:17:49;98649.19;;;2.78;83.36
76853;BME280;65825;52.232;10.566;2023-03-07T11:20:20;98642.19;;;2.80;83.37
76853;BME280;65825;52.232;10.566;2023-03-07T11:22:45;98646.75;;;2.73;83.75
76853;BME280;65825;52.232;10.566;2023-03-07T11:25:23;98638.06;;;2.73;83.30
76853;BME280;65825;52.232;10.566;2023-03-07T11:27:54;98639.88;;;2.71;83.85
76853;BME280;65825;52.232;10.566;2023-03-07T11:38:57;98634.22;;;2.58;83.89
76853;BME280;65825;52.232;10.566;2023-03-07T11:41:37;98633.88;;;2.69;84.21
76853;BME280;65825;52.232;10.566;2023-03-07T11:50:18;98636.25;;;3.01;82.93
76853;BME280;65825;52.232;10.566;2023-03-07T11:53:13;98644.34;;;2.93;83.25
76853;BME280;65825;52.232;10.566;2023-03-07T12:09:35;98645.56;;;3.08;82.74
76853;BME280;65825;52.232;10.566;2023-03-07T12:12:37;98645.47;;;3.11;83.04
76853;BME280;65825;52.232;10.566;2023-03-07T12:23:32;98655.63;;;3.18;83.30
76853;BME280;65825;52.232;10.566;2023-03-07T12:26:12;98650.00;;;3.53;82.30
76853;BME280;65825;52.232;10.566;2023-03-07T12:28:44;98653.44;;;3.31;82.53
76853;BME280;65825;52.232;10.566;2023-03-07T12:31:46;98654.09;;;3.36;82.14
76853;BME280;65825;52.232;10.566;2023-03-07T12:34:28;98657.19;;;3.22;83.25
76853;BME280;65825;52.232;10.566;2023-03-07T12:37:02;98648.03;;;3.37;83.33
76853;BME280;65825;52.232;10.566;2023-03-07T12:39:36;98656.56;;;3.40;81.86
76853;BME280;65825;52.232;10.566;2023-03-07T12:43:12;98665.78;;;3.50;81.84
76853;BME280;65825;52.232;10.566;2023-03-07T12:50:30;98656.06;;;3.05;83.72
76853;BME280;65825;52.232;10.566;2023-03-07T12:53:09;98662.19;;;3.04;83.76
76853;BME280;65825;52.232;10.566;2023-03-07T12:55:45;98664.66;;;3.08;82.91
76853;BME280;65825;52.232;10.566;2023-03-07T13:01:06;98667.63;;;2.98;83.94
76853;BME280;65825;52.232;10.566;2023-03-07T13:03:46;98674.69;;;2.94;84.31
76853;BME280;65825;52.232;10.566;2023-03-07T13:06:16;98664.31;;;2.93;84.18
76853;BME280;65825;52.232;10.566;2023-03-07T13:08:46;98660.09;;;2.89;84.73
76853;BME280;65825;52.232;10.566;2023-03-07T13:11:21;98663.88;;;3.05;83.65
76853;BME280;65825;52.232;10.566;2023-03-07T13:14:00;98655.16;;;3.32;83.19
76853;BME280;65825;52.232;10.566;2023-03-07T13:16:42;98650.28;;;3.46;82.51
76853;BME280;65825;52.232;10.566;2023-03-07T13:21:56;98651.84;;;3.74;81.30
76853;BME280;65825;52.232;10.566;2023-03-07T13:24:31;98651.84;;;3.74;81.16
76853;BME280;65825;52.232;10.566;2023-03-07T13:26:58;98658.88;;;3.72;80.42
76853;BME280;65825;52.232;10.566;2023-03-07T13:37:50;98653.16;;;3.86;80.24
76853;BME280;65825;52.232;10.566;2023-03-07T13:43:03;98655.06;;;3.58;80.79
76853;BME280;65825;52.232;10.566;2023-03-07T13:48:06;98646.78;;;3.47;81.02
76853;BME280;65825;52.232;10.566;2023-03-07T13:53:01;98655.25;;;3.76;79.78
76853;BME280;65825;52.232;10.566;2023-03-07T13:55:30;98661.75;;;3.65;79.88
76853;BME280;65825;52.232;10.566;2023-03-07T13:58:14;98652.00;;;3.47;81.27
76853;BME280;65825;52.232;10.566;2023-03-07T14:00:48;98649.88;;;3.58;81.00
76853;BME280;65825;52.232;10.566;2023-03-07T14:03:24;98651.97;;;3.71;80.28
76853;BME280;65825;52.232;10.566;2023-03-07T14:05:51;98661.50;;;3.72;78.78
76853;BME280;65825;52.232;10.566;2023-03-07T14:08:19;98657.69;;;3.81;79.21
76853;BME280;65825;52.232;10.566;2023-03-07T14:10:47;98654.31;;;4.00;78.21
76853;BME280;65825;52.232;10.566;2023-03-07T14:19:11;98653.09;;;3.87;77.61
76853;BME280;65825;52.232;10.566;2023-03-07T14:21:54;98652.47;;;3.81;78.98
76853;BME280;65825;52.232;10.566;2023-03-07T14:27:03;98660.56;;;3.73;78.19
76853;BME280;65825;52.232;10.566;2023-03-07T14:29:30;98666.56;;;3.52;77.91
76853;BME280;65825;52.232;10.566;2023-03-07T14:31:57;98665.56;;;3.56;78.20
76853;BME280;65825;52.232;10.566;2023-03-07T14:37:11;98676.22;;;3.73;78.04
76853;BME280;65825;52.232;10.566;2023-03-07T14:39:49;98672.72;;;3.74;77.21
76853;BME280;65825;52.232;10.566;2023-03-07T14:44:51;98675.59;;;3.67;77.43
76853;BME280;65825;52.232;10.566;2023-03-07T14:50:16;98682.66;;;3.40;78.65